sensor_id;sensor_type;location;lat;lon;timestamp;P1;durP1;ratioP1;P2;durP2;ratioP2
59338;SDS011;45117;50.960;5.500;2023-07-31T00:00:57;11.65;;;2.92;;
59338;SDS011;45117;50.960;5.500;2023-07-31T00:03:24;11.32;;;3.35;;
59338;SDS011;45117;50.960;5.500;2023-07-31T00:05:51;8.65;;;3.20;;
59338;SDS011;45117;50.960;5.500;2023-07-31T00:08:17;14.02;;;3.47;;
59338;SDS011;45117;50.960;5.500;2023-07-31T00:10:45;7.80;;;3.10;;
59338;SDS011;45117;50.960;5.500;2023-07-31T00:13:12;9.93;;;3.00;;
59338;SDS011;45117;50.960;5.500;2023-07-31T00:15:39;12.35;;;3.67;;
59338;SDS011;45117;50.960;5.500;2023-07-31T00:18:05;9.85;;;3.10;;
59338;SDS011;45117;50.960;5.500;2023-07-31T00:20:32;12.15;;;3.35;;
59338;SDS011;45117;50.960;5.500;2023-07-31T00:22:58;12.13;;;3.45;;
59338;SDS011;45117;50.960;5.500;2023-07-31T00:25:28;11.95;;;3.50;;
59338;SDS011;45117;50.960;5.500;2023-07-31T00:28:07;9.15;;;3.22;;
59338;SDS011;45117;50.960;5.500;2023-07-31T00:30:34;11.38;;;3.60;;
59338;SDS011;45117;50.960;5.500;2023-07-31T00:33:00;10.15;;;3.50;;
59338;SDS011;45117;50.960;5.500;2023-07-31T00:35:27;9.77;;;3.40;;
59338;SDS011;45117;50.960;5.500;2023-07-31T00:37:54;9.82;;;3.65;;
59338;SDS011;45117;50.960;5.500;2023-07-31T00:40:20;10.95;;;3.42;;
59338;SDS011;45117;50.960;5.500;2023-07-31T00:42:47;13.85;;;3.65;;
59338;SDS011;45117;50.960;5.500;2023-07-31T00:45:15;14.25;;;3.55;;
59338;SDS011;45117;50.960;5.500;2023-07-31T00:47:41;14.63;;;3.78;;
59338;SDS011;45117;50.960;5.500;2023-07-31T00:50:15;12.38;;;4.20;;
59338;SDS011;45117;50.960;5.500;2023-07-31T00:52:56;13.98;;;3.60;;
59338;SDS011;45117;50.960;5.500;2023-07-31T00:55:51;14.13;;;4.00;;
59338;SDS011;45117;50.960;5.500;2023-07-31T00:58:19;12.30;;;3.33;;
59338;SDS011;45117;50.960;5.500;2023-07-31T01:00:47;12.35;;;3.40;;
59338;SDS011;45117;50.960;5.500;2023-07-31T01:03:15;13.52;;;3.63;;
59338;SDS011;45117;50.960;5.500;2023-07-31T01:05:43;11.43;;;3.72;;
59338;SDS011;45117;50.960;5.500;2023-07-31T01:08:18;11.23;;;4.18;;
59338;SDS011;45117;50.960;5.500;2023-07-31T01:10:56;12.88;;;3.58;;
59338;SDS011;45117;50.960;5.500;2023-07-31T01:13:28;14.30;;;3.45;;
59338;SDS011;45117;50.960;5.500;2023-07-31T01:15:56;11.70;;;3.92;;
59338;SDS011;45117;50.960;5.500;2023-07-31T01:18:23;10.90;;;3.22;;
59338;SDS011;45117;50.960;5.500;2023-07-31T01:20:52;10.10;;;3.85;;
59338;SDS011;45117;50.960;5.500;2023-07-31T01:23:35;12.60;;;3.63;;
59338;SDS011;45117;50.960;5.500;2023-07-31T01:26:19;12.27;;;4.10;;
59338;SDS011;45117;50.960;5.500;2023-07-31T01:28:50;12.38;;;3.53;;
59338;SDS011;45117;50.960;5.500;2023-07-31T01:31:23;10.90;;;3.50;;
59338;SDS011;45117;50.960;5.500;2023-07-31T01:33:52;8.50;;;3.72;;
59338;SDS011;45117;50.960;5.500;2023-07-31T01:36:39;11.00;;;3.78;;
59338;SDS011;45117;50.960;5.500;2023-07-31T01:39:05;9.15;;;3.20;;
59338;SDS011;45117;50.960;5.500;2023-07-31T01:41:33;12.73;;;3.50;;
59338;SDS011;45117;50.960;5.500;2023-07-31T01:44:00;10.30;;;3.63;;
59338;SDS011;45117;50.960;5.500;2023-07-31T01:46:26;9.02;;;3.63;;
59338;SDS011;45117;50.960;5.500;2023-07-31T01:48:53;9.15;;;3.63;;
59338;SDS011;45117;50.960;5.500;2023-07-31T01:51:20;10.93;;;3.80;;
59338;SDS011;45117;50.960;5.500;2023-07-31T01:53:45;12.90;;;3.72;;
59338;SDS011;45117;50.960;5.500;2023-07-31T01:56:14;13.43;;;4.65;;
59338;SDS011;45117;50.960;5.500;2023-07-31T01:58:42;9.00;;;3.30;;
59338;SDS011;45117;50.960;5.500;2023-07-31T02:01:08;9.02;;;3.53;;
59338;SDS011;45117;50.960;5.500;2023-07-31T02:03:35;9.63;;;3.20;;
59338;SDS011;45117;50.960;5.500;2023-07-31T02:06:04;13.20;;;4.03;;
59338;SDS011;45117;50.960;5.500;2023-07-31T02:08:31;11.98;;;3.88;;
59338;SDS011;45117;50.960;5.500;2023-07-31T02:10:57;8.98;;;3.35;;
59338;SDS011;45117;50.960;5.500;2023-07-31T02:13:24;12.20;;;3.88;;
59338;SDS011;45117;50.960;5.500;2023-07-31T02:15:52;9.65;;;3.50;;
59338;SDS011;45117;50.960;5.500;2023-07-31T02:18:19;9.32;;;3.55;;
59338;SDS011;45117;50.960;5.500;2023-07-31T02:20:48;14.55;;;4.57;;
59338;SDS011;45117;50.960;5.500;2023-07-31T02:23:16;8.82;;;3.65;;
59338;SDS011;45117;50.960;5.500;2023-07-31T02:25:42;11.38;;;3.90;;
59338;SDS011;45117;50.960;5.500;2023-07-31T02:28:09;12.82;;;3.88;;
59338;SDS011;45117;50.960;5.500;2023-07-31T02:30:36;11.65;;;4.03;;
59338;SDS011;45117;50.960;5.500;2023-07-31T02:33:13;9.98;;;3.30;;
59338;SDS011;45117;50.960;5.500;2023-07-31T02:35:41;11.85;;;4.18;;
59338;SDS011;45117;50.960;5.500;2023-07-31T02:38:07;13.15;;;4.10;;
59338;SDS011;45117;50.960;5.500;2023-07-31T02:40:34;13.80;;;4.05;;
59338;SDS011;45117;50.960;5.500;2023-07-31T02:43:00;11.20;;;4.22;;
59338;SDS011;45117;50.960;5.500;2023-07-31T02:45:27;9.85;;;3.45;;
59338;SDS011;45117;50.960;5.500;2023-07-31T02:47:54;13.63;;;4.95;;
59338;SDS011;45117;50.960;5.500;2023-07-31T02:50:22;13.30;;;3.80;;
59338;SDS011;45117;50.960;5.500;2023-07-31T02:52:48;14.85;;;4.00;;
59338;SDS011;45117;50.960;5.500;2023-07-31T02:55:15;10.02;;;3.67;;
59338;SDS011;45117;50.960;5.500;2023-07-31T02:57:41;10.43;;;3.80;;
59338;SDS011;45117;50.960;5.500;2023-07-31T03:00:08;14.13;;;4.85;;
59338;SDS011;45117;50.960;5.500;2023-07-31T03:02:35;11.13;;;3.90;;
59338;SDS011;45117;50.960;5.500;2023-07-31T03:05:01;11.13;;;4.22;;
59338;SDS011;45117;50.960;5.500;2023-07-31T03:07:30;9.30;;;3.67;;
59338;SDS011;45117;50.960;5.500;2023-07-31T03:09:56;11.35;;;4.13;;
59338;SDS011;45117;50.960;5.500;2023-07-31T03:12:23;11.18;;;4.15;;
59338;SDS011;45117;50.960;5.500;2023-07-31T03:14:49;9.40;;;3.88;;
59338;SDS011;45117;50.960;5.500;2023-07-31T03:17:16;10.30;;;4.13;;
59338;SDS011;45117;50.960;5.500;2023-07-31T03:19:42;11.05;;;4.50;;
59338;SDS011;45117;50.960;5.500;2023-07-31T03:22:09;9.63;;;4.03;;
59338;SDS011;45117;50.960;5.500;2023-07-31T03:24:37;9.00;;;3.80;;
59338;SDS011;45117;50.960;5.500;2023-07-31T03:27:04;10.65;;;4.68;;
59338;SDS011;45117;50.960;5.500;2023-07-31T03:29:31;11.90;;;4.07;;
59338;SDS011;45117;50.960;5.500;2023-07-31T03:31:58;12.35;;;4.25;;
59338;SDS011;45117;50.960;5.500;2023-07-31T03:34:25;7.68;;;3.92;;
59338;SDS011;45117;50.960;5.500;2023-07-31T03:36:51;10.23;;;3.97;;
59338;SDS011;45117;50.960;5.500;2023-07-31T03:39:18;9.65;;;3.95;;
59338;SDS011;45117;50.960;5.500;2023-07-31T03:41:46;10.43;;;4.18;;
59338;SDS011;45117;50.960;5.500;2023-07-31T03:44:12;7.93;;;3.88;;
59338;SDS011;45117;50.960;5.500;2023-07-31T03:46:39;9.70;;;4.30;;
59338;SDS011;45117;50.960;5.500;2023-07-31T03:49:05;8.02;;;4.15;;
59338;SDS011;45117;50.960;5.500;2023-07-31T03:51:32;7.57;;;3.50;;
59338;SDS011;45117;50.960;5.500;2023-07-31T03:53:59;10.40;;;4.00;;
59338;SDS011;45117;50.960;5.500;2023-07-31T03:56:25;6.00;;;3.53;;
59338;SDS011;45117;50.960;5.500;2023-07-31T03:58:53;7.85;;;3.78;;
59338;SDS011;45117;50.960;5.500;2023-07-31T04:01:20;12.45;;;4.30;;
59338;SDS011;45117;50.960;5.500;2023-07-31T04:03:47;8.50;;;3.63;;
59338;SDS011;45117;50.960;5.500;2023-07-31T04:06:13;6.82;;;3.40;;
59338;SDS011;45117;50.960;5.500;2023-07-31T04:08:43;8.15;;;3.50;;
59338;SDS011;45117;50.960;5.500;2023-07-31T04:11:09;11.10;;;3.90;;
59338;SDS011;45117;50.960;5.500;2023-07-31T04:13:36;10.98;;;3.80;;
59338;SDS011;45117;50.960;5.500;2023-07-31T04:16:05;8.73;;;3.40;;
59338;SDS011;45117;50.960;5.500;2023-07-31T04:18:31;9.10;;;3.75;;
59338;SDS011;45117;50.960;5.500;2023-07-31T04:20:58;8.05;;;3.45;;
59338;SDS011;45117;50.960;5.500;2023-07-31T04:23:26;7.47;;;3.78;;
59338;SDS011;45117;50.960;5.500;2023-07-31T04:25:56;8.10;;;3.85;;
59338;SDS011;45117;50.960;5.500;2023-07-31T04:28:22;8.00;;;3.40;;
59338;SDS011;45117;50.960;5.500;2023-07-31T04:30:51;8.70;;;3.67;;
59338;SDS011;45117;50.960;5.500;2023-07-31T04:33:19;8.18;;;3.47;;
59338;SDS011;45117;50.960;5.500;2023-07-31T04:35:50;7.22;;;3.40;;
59338;SDS011;45117;50.960;5.500;2023-07-31T04:38:18;8.27;;;3.42;;
59338;SDS011;45117;50.960;5.500;2023-07-31T04:40:44;10.40;;;3.60;;
59338;SDS011;45117;50.960;5.500;2023-07-31T04:43:11;8.07;;;3.42;;
59338;SDS011;45117;50.960;5.500;2023-07-31T04:45:37;7.10;;;3.47;;
59338;SDS011;45117;50.960;5.500;2023-07-31T04:48:04;6.95;;;3.10;;
59338;SDS011;45117;50.960;5.500;2023-07-31T04:50:32;7.85;;;3.20;;
59338;SDS011;45117;50.960;5.500;2023-07-31T04:52:58;9.85;;;3.80;;
59338;SDS011;45117;50.960;5.500;2023-07-31T04:55:25;7.65;;;3.50;;
59338;SDS011;45117;50.960;5.500;2023-07-31T04:57:52;6.68;;;3.20;;
59338;SDS011;45117;50.960;5.500;2023-07-31T05:00:18;7.22;;;3.05;;
59338;SDS011;45117;50.960;5.500;2023-07-31T05:02:45;9.85;;;3.40;;
59338;SDS011;45117;50.960;5.500;2023-07-31T05:05:11;8.18;;;3.42;;
59338;SDS011;45117;50.960;5.500;2023-07-31T05:07:39;10.85;;;3.80;;
59338;SDS011;45117;50.960;5.500;2023-07-31T05:10:06;5.82;;;3.28;;
59338;SDS011;45117;50.960;5.500;2023-07-31T05:12:33;6.53;;;3.13;;
59338;SDS011;45117;50.960;5.500;2023-07-31T05:15:00;10.10;;;3.35;;
59338;SDS011;45117;50.960;5.500;2023-07-31T05:17:27;6.90;;;3.85;;
59338;SDS011;45117;50.960;5.500;2023-07-31T05:19:53;9.20;;;3.50;;
59338;SDS011;45117;50.960;5.500;2023-07-31T05:22:20;8.85;;;3.80;;
59338;SDS011;45117;50.960;5.500;2023-07-31T05:24:48;9.30;;;3.78;;
59338;SDS011;45117;50.960;5.500;2023-07-31T05:27:15;9.60;;;3.40;;
59338;SDS011;45117;50.960;5.500;2023-07-31T05:29:43;8.73;;;3.50;;
59338;SDS011;45117;50.960;5.500;2023-07-31T05:32:10;6.63;;;3.28;;
59338;SDS011;45117;50.960;5.500;2023-07-31T05:34:36;6.22;;;3.22;;
59338;SDS011;45117;50.960;5.500;2023-07-31T05:37:03;7.82;;;3.75;;
59338;SDS011;45117;50.960;5.500;2023-07-31T05:39:30;7.88;;;3.83;;
59338;SDS011;45117;50.960;5.500;2023-07-31T05:41:58;6.75;;;3.42;;
59338;SDS011;45117;50.960;5.500;2023-07-31T05:44:25;8.75;;;3.85;;
59338;SDS011;45117;50.960;5.500;2023-07-31T05:46:52;9.25;;;3.33;;
59338;SDS011;45117;50.960;5.500;2023-07-31T05:49:18;7.53;;;3.58;;
59338;SDS011;45117;50.960;5.500;2023-07-31T05:51:45;7.50;;;3.30;;
59338;SDS011;45117;50.960;5.500;2023-07-31T05:54:11;9.55;;;3.90;;
59338;SDS011;45117;50.960;5.500;2023-07-31T05:56:38;7.65;;;3.10;;
59338;SDS011;45117;50.960;5.500;2023-07-31T05:59:06;7.07;;;3.38;;
59338;SDS011;45117;50.960;5.500;2023-07-31T06:01:32;12.00;;;3.72;;
59338;SDS011;45117;50.960;5.500;2023-07-31T06:03:59;7.30;;;3.10;;
59338;SDS011;45117;50.960;5.500;2023-07-31T06:06:27;7.55;;;3.17;;
59338;SDS011;45117;50.960;5.500;2023-07-31T06:08:53;4.72;;;2.88;;
59338;SDS011;45117;50.960;5.500;2023-07-31T06:11:21;8.88;;;3.47;;
59338;SDS011;45117;50.960;5.500;2023-07-31T06:13:48;8.30;;;3.50;;
59338;SDS011;45117;50.960;5.500;2023-07-31T06:16:16;6.85;;;2.90;;
59338;SDS011;45117;50.960;5.500;2023-07-31T06:18:43;7.50;;;3.00;;
59338;SDS011;45117;50.960;5.500;2023-07-31T06:21:09;8.10;;;3.28;;
59338;SDS011;45117;50.960;5.500;2023-07-31T06:23:37;8.90;;;3.22;;
59338;SDS011;45117;50.960;5.500;2023-07-31T06:26:03;8.02;;;3.17;;
59338;SDS011;45117;50.960;5.500;2023-07-31T06:28:30;6.90;;;3.13;;
59338;SDS011;45117;50.960;5.500;2023-07-31T06:30:57;6.57;;;2.92;;
59338;SDS011;45117;50.960;5.500;2023-07-31T06:33:25;8.02;;;3.10;;
59338;SDS011;45117;50.960;5.500;2023-07-31T06:35:52;7.43;;;3.00;;
59338;SDS011;45117;50.960;5.500;2023-07-31T06:38:21;7.63;;;2.95;;
59338;SDS011;45117;50.960;5.500;2023-07-31T06:40:48;8.25;;;3.10;;
59338;SDS011;45117;50.960;5.500;2023-07-31T06:43:15;5.72;;;2.90;;
59338;SDS011;45117;50.960;5.500;2023-07-31T06:45:42;8.65;;;3.15;;
59338;SDS011;45117;50.960;5.500;2023-07-31T06:48:09;6.00;;;2.90;;
59338;SDS011;45117;50.960;5.500;2023-07-31T06:50:37;8.60;;;3.20;;
59338;SDS011;45117;50.960;5.500;2023-07-31T06:53:03;7.93;;;3.08;;
59338;SDS011;45117;50.960;5.500;2023-07-31T06:55:30;8.30;;;3.17;;
59338;SDS011;45117;50.960;5.500;2023-07-31T06:57:57;8.77;;;3.35;;
59338;SDS011;45117;50.960;5.500;2023-07-31T07:00:23;8.73;;;3.35;;
59338;SDS011;45117;50.960;5.500;2023-07-31T07:02:50;9.27;;;3.60;;
59338;SDS011;45117;50.960;5.500;2023-07-31T07:05:17;9.02;;;3.85;;
59338;SDS011;45117;50.960;5.500;2023-07-31T07:07:45;9.18;;;3.30;;
59338;SDS011;45117;50.960;5.500;2023-07-31T07:10:12;8.23;;;2.97;;
59338;SDS011;45117;50.960;5.500;2023-07-31T07:12:39;10.18;;;3.30;;
59338;SDS011;45117;50.960;5.500;2023-07-31T07:15:06;10.30;;;2.97;;
59338;SDS011;45117;50.960;5.500;2023-07-31T07:17:33;8.57;;;3.03;;
59338;SDS011;45117;50.960;5.500;2023-07-31T07:19:59;8.32;;;3.53;;
59338;SDS011;45117;50.960;5.500;2023-07-31T07:22:28;7.32;;;3.25;;
59338;SDS011;45117;50.960;5.500;2023-07-31T07:24:56;9.30;;;3.45;;
59338;SDS011;45117;50.960;5.500;2023-07-31T07:27:23;6.75;;;2.90;;
59338;SDS011;45117;50.960;5.500;2023-07-31T07:29:50;7.35;;;3.55;;
59338;SDS011;45117;50.960;5.500;2023-07-31T07:32:18;9.13;;;3.70;;
59338;SDS011;45117;50.960;5.500;2023-07-31T07:34:51;5.80;;;3.70;;
59338;SDS011;45117;50.960;5.500;2023-07-31T07:37:17;7.95;;;4.22;;
59338;SDS011;45117;50.960;5.500;2023-07-31T07:39:44;8.82;;;4.65;;
59338;SDS011;45117;50.960;5.500;2023-07-31T07:42:12;9.65;;;4.00;;
59338;SDS011;45117;50.960;5.500;2023-07-31T07:44:39;8.90;;;3.75;;
59338;SDS011;45117;50.960;5.500;2023-07-31T07:47:05;10.45;;;3.83;;
59338;SDS011;45117;50.960;5.500;2023-07-31T07:49:32;9.07;;;3.35;;
59338;SDS011;45117;50.960;5.500;2023-07-31T07:51:59;6.22;;;3.22;;
59338;SDS011;45117;50.960;5.500;2023-07-31T07:54:26;5.85;;;2.90;;
59338;SDS011;45117;50.960;5.500;2023-07-31T07:56:52;6.65;;;2.90;;
59338;SDS011;45117;50.960;5.500;2023-07-31T07:59:20;7.90;;;3.42;;
59338;SDS011;45117;50.960;5.500;2023-07-31T08:01:48;5.25;;;2.72;;
59338;SDS011;45117;50.960;5.500;2023-07-31T08:04:14;6.38;;;3.33;;
59338;SDS011;45117;50.960;5.500;2023-07-31T08:06:41;5.82;;;3.00;;
59338;SDS011;45117;50.960;5.500;2023-07-31T08:09:07;6.95;;;3.10;;
59338;SDS011;45117;50.960;5.500;2023-07-31T08:11:34;8.00;;;3.33;;
59338;SDS011;45117;50.960;5.500;2023-07-31T08:14:01;6.25;;;2.90;;
59338;SDS011;45117;50.960;5.500;2023-07-31T08:16:29;7.20;;;3.05;;
59338;SDS011;45117;50.960;5.500;2023-07-31T08:18:56;6.28;;;3.10;;
59338;SDS011;45117;50.960;5.500;2023-07-31T08:21:23;8.85;;;3.13;;
59338;SDS011;45117;50.960;5.500;2023-07-31T08:23:49;6.32;;;3.10;;
59338;SDS011;45117;50.960;5.500;2023-07-31T08:26:16;5.97;;;2.97;;
59338;SDS011;45117;50.960;5.500;2023-07-31T08:28:43;4.85;;;2.63;;
59338;SDS011;45117;50.960;5.500;2023-07-31T08:31:10;6.70;;;3.00;;
59338;SDS011;45117;50.960;5.500;2023-07-31T08:33:38;8.07;;;3.22;;
59338;SDS011;45117;50.960;5.500;2023-07-31T08:36:06;6.82;;;3.30;;
59338;SDS011;45117;50.960;5.500;2023-07-31T08:38:33;6.95;;;3.30;;
59338;SDS011;45117;50.960;5.500;2023-07-31T08:40:59;6.32;;;2.95;;
59338;SDS011;45117;50.960;5.500;2023-07-31T08:43:26;8.15;;;3.03;;
59338;SDS011;45117;50.960;5.500;2023-07-31T08:45:55;5.30;;;2.88;;
59338;SDS011;45117;50.960;5.500;2023-07-31T08:48:22;7.15;;;3.20;;
59338;SDS011;45117;50.960;5.500;2023-07-31T08:50:51;6.38;;;3.00;;
59338;SDS011;45117;50.960;5.500;2023-07-31T08:53:18;5.95;;;3.22;;
59338;SDS011;45117;50.960;5.500;2023-07-31T08:55:45;7.80;;;3.63;;
59338;SDS011;45117;50.960;5.500;2023-07-31T08:58:13;8.43;;;3.22;;
59338;SDS011;45117;50.960;5.500;2023-07-31T09:00:40;9.57;;;3.42;;
59338;SDS011;45117;50.960;5.500;2023-07-31T09:03:09;5.45;;;2.90;;
59338;SDS011;45117;50.960;5.500;2023-07-31T09:05:39;7.80;;;3.47;;
59338;SDS011;45117;50.960;5.500;2023-07-31T09:08:14;8.23;;;3.17;;
59338;SDS011;45117;50.960;5.500;2023-07-31T09:10:44;6.20;;;3.50;;
59338;SDS011;45117;50.960;5.500;2023-07-31T09:13:12;4.68;;;2.80;;
59338;SDS011;45117;50.960;5.500;2023-07-31T09:15:39;6.90;;;3.00;;
59338;SDS011;45117;50.960;5.500;2023-07-31T09:18:06;7.93;;;3.10;;
59338;SDS011;45117;50.960;5.500;2023-07-31T09:20:59;6.00;;;2.78;;
59338;SDS011;45117;50.960;5.500;2023-07-31T09:23:29;4.47;;;2.33;;
59338;SDS011;45117;50.960;5.500;2023-07-31T09:26:16;6.47;;;3.03;;
59338;SDS011;45117;50.960;5.500;2023-07-31T09:29:01;6.45;;;3.00;;
59338;SDS011;45117;50.960;5.500;2023-07-31T09:31:38;5.95;;;2.88;;
59338;SDS011;45117;50.960;5.500;2023-07-31T09:34:10;5.82;;;2.60;;
59338;SDS011;45117;50.960;5.500;2023-07-31T09:36:40;4.28;;;2.40;;
59338;SDS011;45117;50.960;5.500;2023-07-31T09:39:10;5.63;;;2.47;;
59338;SDS011;45117;50.960;5.500;2023-07-31T09:41:38;3.88;;;2.08;;
59338;SDS011;45117;50.960;5.500;2023-07-31T09:44:08;3.30;;;1.95;;
59338;SDS011;45117;50.960;5.500;2023-07-31T09:46:37;5.63;;;2.10;;
59338;SDS011;45117;50.960;5.500;2023-07-31T09:49:08;4.03;;;1.70;;
59338;SDS011;45117;50.960;5.500;2023-07-31T09:51:55;3.05;;;1.85;;
59338;SDS011;45117;50.960;5.500;2023-07-31T09:54:23;2.60;;;1.70;;
59338;SDS011;45117;50.960;5.500;2023-07-31T09:56:50;4.55;;;2.00;;
59338;SDS011;45117;50.960;5.500;2023-07-31T09:59:25;3.40;;;1.77;;
59338;SDS011;45117;50.960;5.500;2023-07-31T10:04:27;4.57;;;1.58;;
59338;SDS011;45117;50.960;5.500;2023-07-31T10:06:54;2.95;;;1.70;;
59338;SDS011;45117;50.960;5.500;2023-07-31T10:09:30;2.33;;;1.45;;
59338;SDS011;45117;50.960;5.500;2023-07-31T10:12:00;3.88;;;1.38;;
59338;SDS011;45117;50.960;5.500;2023-07-31T10:14:58;4.22;;;1.58;;
59338;SDS011;45117;50.960;5.500;2023-07-31T10:17:26;4.35;;;1.60;;
59338;SDS011;45117;50.960;5.500;2023-07-31T10:20:02;4.45;;;1.77;;
59338;SDS011;45117;50.960;5.500;2023-07-31T10:22:35;2.90;;;1.83;;
59338;SDS011;45117;50.960;5.500;2023-07-31T10:25:18;3.85;;;1.75;;
59338;SDS011;45117;50.960;5.500;2023-07-31T10:27:46;3.58;;;2.05;;
59338;SDS011;45117;50.960;5.500;2023-07-31T10:30:26;5.43;;;1.98;;
59338;SDS011;45117;50.960;5.500;2023-07-31T10:32:56;3.58;;;1.70;;
59338;SDS011;45117;50.960;5.500;2023-07-31T10:35:32;4.00;;;2.10;;
59338;SDS011;45117;50.960;5.500;2023-07-31T10:38:08;5.30;;;2.35;;
59338;SDS011;45117;50.960;5.500;2023-07-31T10:40:38;4.35;;;2.35;;
59338;SDS011;45117;50.960;5.500;2023-07-31T10:43:11;4.30;;;2.00;;
59338;SDS011;45117;50.960;5.500;2023-07-31T10:45:52;3.47;;;2.50;;
59338;SDS011;45117;50.960;5.500;2023-07-31T10:48:23;5.53;;;2.40;;
59338;SDS011;45117;50.960;5.500;2023-07-31T10:50:51;4.88;;;2.47;;
59338;SDS011;45117;50.960;5.500;2023-07-31T10:53:24;5.53;;;2.90;;
59338;SDS011;45117;50.960;5.500;2023-07-31T10:55:52;5.78;;;3.00;;
59338;SDS011;45117;50.960;5.500;2023-07-31T10:58:21;7.47;;;2.92;;
59338;SDS011;45117;50.960;5.500;2023-07-31T11:00:48;5.88;;;3.28;;
59338;SDS011;45117;50.960;5.500;2023-07-31T11:03:18;5.70;;;3.38;;
59338;SDS011;45117;50.960;5.500;2023-07-31T11:05:50;6.13;;;3.38;;
59338;SDS011;45117;50.960;5.500;2023-07-31T11:08:20;5.65;;;3.30;;
59338;SDS011;45117;50.960;5.500;2023-07-31T11:10:49;6.28;;;3.20;;
59338;SDS011;45117;50.960;5.500;2023-07-31T11:13:32;7.63;;;3.17;;
59338;SDS011;45117;50.960;5.500;2023-07-31T11:15:59;6.88;;;3.45;;
59338;SDS011;45117;50.960;5.500;2023-07-31T11:18:28;7.70;;;3.83;;
59338;SDS011;45117;50.960;5.500;2023-07-31T11:20:54;8.45;;;3.97;;
59338;SDS011;45117;50.960;5.500;2023-07-31T11:23:23;7.57;;;3.67;;
59338;SDS011;45117;50.960;5.500;2023-07-31T11:25:50;6.68;;;3.55;;
59338;SDS011;45117;50.960;5.500;2023-07-31T11:28:22;6.50;;;3.47;;
59338;SDS011;45117;50.960;5.500;2023-07-31T11:30:51;7.20;;;3.88;;
59338;SDS011;45117;50.960;5.500;2023-07-31T11:33:23;7.90;;;3.80;;
59338;SDS011;45117;50.960;5.500;2023-07-31T11:35:55;6.38;;;3.40;;
59338;SDS011;45117;50.960;5.500;2023-07-31T11:38:28;7.78;;;3.40;;
59338;SDS011;45117;50.960;5.500;2023-07-31T11:41:03;8.35;;;3.50;;
59338;SDS011;45117;50.960;5.500;2023-07-31T11:43:33;5.88;;;3.45;;
59338;SDS011;45117;50.960;5.500;2023-07-31T11:46:01;6.72;;;3.30;;
59338;SDS011;45117;50.960;5.500;2023-07-31T11:48:29;7.90;;;3.90;;
59338;SDS011;45117;50.960;5.500;2023-07-31T11:51:00;7.53;;;3.67;;
59338;SDS011;45117;50.960;5.500;2023-07-31T11:53:28;7.55;;;3.70;;
59338;SDS011;45117;50.960;5.500;2023-07-31T11:56:16;5.80;;;3.33;;
59338;SDS011;45117;50.960;5.500;2023-07-31T11:59:07;5.90;;;3.45;;
59338;SDS011;45117;50.960;5.500;2023-07-31T12:01:33;8.40;;;3.30;;
59338;SDS011;45117;50.960;5.500;2023-07-31T12:04:00;8.50;;;3.85;;
59338;SDS011;45117;50.960;5.500;2023-07-31T12:06:38;6.00;;;3.22;;
59338;SDS011;45117;50.960;5.500;2023-07-31T12:09:06;6.30;;;3.33;;
59338;SDS011;45117;50.960;5.500;2023-07-31T12:11:42;9.32;;;3.38;;
59338;SDS011;45117;50.960;5.500;2023-07-31T12:14:18;5.75;;;3.38;;
59338;SDS011;45117;50.960;5.500;2023-07-31T12:16:54;9.05;;;3.60;;
59338;SDS011;45117;50.960;5.500;2023-07-31T12:19:21;6.75;;;3.20;;
59338;SDS011;45117;50.960;5.500;2023-07-31T12:21:51;6.57;;;3.30;;
59338;SDS011;45117;50.960;5.500;2023-07-31T12:24:18;6.78;;;3.58;;
59338;SDS011;45117;50.960;5.500;2023-07-31T12:26:55;8.32;;;3.33;;
59338;SDS011;45117;50.960;5.500;2023-07-31T12:29:21;5.97;;;3.60;;
59338;SDS011;45117;50.960;5.500;2023-07-31T12:31:51;8.95;;;3.15;;
59338;SDS011;45117;50.960;5.500;2023-07-31T12:34:18;6.95;;;3.40;;
59338;SDS011;45117;50.960;5.500;2023-07-31T12:37:00;6.75;;;3.25;;
59338;SDS011;45117;50.960;5.500;2023-07-31T12:39:41;7.07;;;3.30;;
59338;SDS011;45117;50.960;5.500;2023-07-31T12:42:07;6.30;;;3.38;;
59338;SDS011;45117;50.960;5.500;2023-07-31T12:44:37;7.75;;;3.47;;
59338;SDS011;45117;50.960;5.500;2023-07-31T12:47:03;6.05;;;3.13;;
59338;SDS011;45117;50.960;5.500;2023-07-31T12:49:31;7.95;;;3.20;;
59338;SDS011;45117;50.960;5.500;2023-07-31T12:51:57;8.05;;;3.30;;
59338;SDS011;45117;50.960;5.500;2023-07-31T12:54:26;5.25;;;2.75;;
59338;SDS011;45117;50.960;5.500;2023-07-31T12:56:52;8.93;;;3.15;;
59338;SDS011;45117;50.960;5.500;2023-07-31T12:59:19;8.65;;;3.10;;
59338;SDS011;45117;50.960;5.500;2023-07-31T13:01:46;6.45;;;2.85;;
59338;SDS011;45117;50.960;5.500;2023-07-31T13:04:13;6.07;;;3.10;;
59338;SDS011;45117;50.960;5.500;2023-07-31T13:06:43;8.02;;;3.30;;
59338;SDS011;45117;50.960;5.500;2023-07-31T13:09:10;6.97;;;3.28;;
59338;SDS011;45117;50.960;5.500;2023-07-31T13:11:38;6.70;;;3.13;;
59338;SDS011;45117;50.960;5.500;2023-07-31T13:14:05;6.15;;;3.22;;
59338;SDS011;45117;50.960;5.500;2023-07-31T13:16:34;6.10;;;2.78;;
59338;SDS011;45117;50.960;5.500;2023-07-31T13:19:01;9.05;;;3.50;;
59338;SDS011;45117;50.960;5.500;2023-07-31T13:21:30;7.30;;;3.45;;
59338;SDS011;45117;50.960;5.500;2023-07-31T13:23:56;8.68;;;3.42;;
59338;SDS011;45117;50.960;5.500;2023-07-31T13:26:25;6.82;;;3.28;;
59338;SDS011;45117;50.960;5.500;2023-07-31T13:28:53;6.38;;;3.63;;
59338;SDS011;45117;50.960;5.500;2023-07-31T13:31:20;7.70;;;3.95;;
59338;SDS011;45117;50.960;5.500;2023-07-31T13:33:51;6.63;;;3.38;;
59338;SDS011;45117;50.960;5.500;2023-07-31T13:36:18;10.88;;;3.90;;
59338;SDS011;45117;50.960;5.500;2023-07-31T13:38:45;8.48;;;3.55;;
59338;SDS011;45117;50.960;5.500;2023-07-31T13:41:12;8.57;;;3.40;;
59338;SDS011;45117;50.960;5.500;2023-07-31T13:43:42;7.75;;;3.95;;
59338;SDS011;45117;50.960;5.500;2023-07-31T13:46:10;7.00;;;3.55;;
59338;SDS011;45117;50.960;5.500;2023-07-31T13:48:37;8.07;;;3.60;;
59338;SDS011;45117;50.960;5.500;2023-07-31T13:51:04;7.45;;;3.70;;
59338;SDS011;45117;50.960;5.500;2023-07-31T13:53:30;10.25;;;4.13;;
59338;SDS011;45117;50.960;5.500;2023-07-31T13:55:57;9.07;;;4.22;;
59338;SDS011;45117;50.960;5.500;2023-07-31T13:58:24;7.65;;;3.63;;
59338;SDS011;45117;50.960;5.500;2023-07-31T14:00:50;6.72;;;3.60;;
59338;SDS011;45117;50.960;5.500;2023-07-31T14:03:19;8.57;;;3.83;;
59338;SDS011;45117;50.960;5.500;2023-07-31T14:05:49;6.47;;;3.75;;
59338;SDS011;45117;50.960;5.500;2023-07-31T14:08:16;8.18;;;3.38;;
59338;SDS011;45117;50.960;5.500;2023-07-31T14:10:44;8.10;;;3.58;;
59338;SDS011;45117;50.960;5.500;2023-07-31T14:13:11;9.05;;;3.40;;
59338;SDS011;45117;50.960;5.500;2023-07-31T14:15:38;7.85;;;3.75;;
59338;SDS011;45117;50.960;5.500;2023-07-31T14:18:05;8.18;;;4.00;;
59338;SDS011;45117;50.960;5.500;2023-07-31T14:20:33;6.45;;;3.75;;
59338;SDS011;45117;50.960;5.500;2023-07-31T14:23:00;10.65;;;3.90;;
59338;SDS011;45117;50.960;5.500;2023-07-31T14:25:28;7.75;;;3.22;;
59338;SDS011;45117;50.960;5.500;2023-07-31T14:27:55;10.70;;;4.10;;
59338;SDS011;45117;50.960;5.500;2023-07-31T14:30:21;8.90;;;3.33;;
59338;SDS011;45117;50.960;5.500;2023-07-31T14:32:48;6.90;;;3.28;;
59338;SDS011;45117;50.960;5.500;2023-07-31T14:35:24;5.82;;;3.00;;
59338;SDS011;45117;50.960;5.500;2023-07-31T14:38:00;8.15;;;2.97;;
59338;SDS011;45117;50.960;5.500;2023-07-31T14:40:28;7.22;;;3.42;;
59338;SDS011;45117;50.960;5.500;2023-07-31T14:42:55;7.72;;;3.72;;
59338;SDS011;45117;50.960;5.500;2023-07-31T14:45:22;7.35;;;3.60;;
59338;SDS011;45117;50.960;5.500;2023-07-31T14:47:54;6.93;;;3.10;;
59338;SDS011;45117;50.960;5.500;2023-07-31T14:50:29;6.88;;;3.67;;
59338;SDS011;45117;50.960;5.500;2023-07-31T14:53:00;7.30;;;3.70;;
59338;SDS011;45117;50.960;5.500;2023-07-31T14:55:27;8.80;;;3.33;;
59338;SDS011;45117;50.960;5.500;2023-07-31T14:57:55;8.30;;;3.70;;